Flight Track Log - Related Links

Times and Time Zones

All times are in EDT time to prevent confusion due to time zone crossing. See the N75ZM flight status page for this flight to view local times or setup timezone preferences in your user account.

Time Position Orientation Groundspeed Altitude Reporting Facility
EDT Latitude Longitude Course Direction KTS MPH feet Rate Location/Type
Tue 12:13:29 PM 27.4978 -80.3803 337° Northwest 169 194 900  Level Miami Center
Tue 12:14:29 PM 27.4989 -80.4156 272° West 135 155 1,800 800 Climbing Miami Center
Tue 12:15:29 PM 27.5000 -80.4506 272° West 120 138 2,500 750 Climbing Miami Center
Tue 12:16:29 PM 27.5033 -80.4883 276° West 120 138 3,300 700 Climbing Miami Center
Tue 12:17:29 PM 27.5367 -80.4964 348° North 109 125 3,900 600 Climbing Miami Center
Tue 12:18:00 PM 27.7352 -80.5091 337° Northwest  Level Estimated
Tue 12:18:29 PM 27.5758 -80.5069 347° North 133 153 4,500  Level Miami Center
Tue 12:19:29 PM 27.6133 -80.5175 346° North 138 159 5,000 450 Climbing Miami Center
Tue 12:20:29 PM 27.6528 -80.5258 349° North 138 159 5,400 450 Climbing Miami Center
Tue 12:21:29 PM 27.6881 -80.5339 349° North 143 165 5,900 500 Climbing Miami Center
Tue 12:22:29 PM 27.7275 -80.5447 346° North 143 165 6,400 500 Climbing Miami Center
Tue 12:23:29 PM 27.7708 -80.5556 348° North 143 165 6,900 500 Climbing Miami Center
Tue 12:24:29 PM 27.8103 -80.5636 350° North 143 165 7,400 482 Climbing Miami Center
Tue 12:26:48 PM 27.9000 -80.5833 349° North 143 165 8,500 466 Climbing Orlando TRACON
Tue 12:27:42 PM 27.9333 -80.6000 336° Northwest 137 158 8,900 350 Climbing Orlando TRACON
Tue 12:28:48 PM 27.9833 -80.6000 360° North 142 163 9,200 150 Climbing Orlando TRACON
Tue 12:29:42 PM 28.0167 -80.6167 336° Northwest 162 186 9,200  Level Orlando TRACON
Tue 12:30:48 PM 28.0667 -80.6333 344° North 163 188 9,200  Level Orlando TRACON
Tue 12:31:48 PM 28.1167 -80.6333 360° North 168 193 9,200  Level Orlando TRACON
Tue 12:32:42 PM 28.1500 -80.6500 336° Northwest 156 180 9,200  Level Orlando TRACON
Tue 12:33:42 PM 28.1833 -80.6667 336° Northwest 166 191 9,200 -52 Level Orlando TRACON
Tue 12:34:37 PM 28.2333 -80.6833 344° North 166 191 9,100 -52 Descending Orlando TRACON
Tue 12:35:37 PM 28.2667 -80.7000 336° Northwest 166 191 9,100 50 Level Orlando TRACON
Tue 12:36:37 PM 28.3167 -80.7167 344° North 165 190 9,200  Climbing Orlando TRACON
Tue 12:37:37 PM 28.3667 -80.7333 344° North 167 192 9,100  Descending Orlando TRACON
Tue 12:38:37 PM 28.4000 -80.7500 336° Northwest 164 189 9,200  Climbing Orlando TRACON
Tue 12:39:43 PM 28.4500 -80.7667 344° North 162 186 9,100 -50 Descending Orlando TRACON
Tue 12:40:37 PM 28.4833 -80.7833 336° Northwest 161 185 9,100  Level Orlando TRACON
Tue 12:41:37 PM 28.5333 -80.8000 344° North 164 189 9,100 48 Level Orlando TRACON
Tue 12:42:43 PM 28.5833 -80.8167 344° North 160 184 9,200  Climbing Orlando TRACON
Tue 12:43:37 PM 28.6167 -80.8333 336° Northwest 161 185 9,100  Descending Orlando TRACON
Tue 12:44:32 PM 28.6500 -80.8500 336° Northwest 159 183 9,200 52 Climbing Orlando TRACON
Tue 12:45:32 PM 28.7000 -80.8667 344° North 156 180 9,200 -50 Level Orlando TRACON
Tue 12:46:32 PM 28.7333 -80.8833 336° Northwest 155 178 9,100 -38 Descending Orlando TRACON
Tue 12:48:12 PM 28.8028 -80.9261 332° Northwest 157 181 9,100  Level Jacksonville Center
Tue 12:49:13 PM 28.8447 -80.9419 342° North 157 181 9,100  Level Jacksonville Center
Tue 12:50:14 PM 28.8844 -80.9575 341° North 158 182 9,100 52 Level Jacksonville Center
Tue 12:51:09 PM 28.9264 -80.9664 349° North 159 183 9,200 55 Climbing Jacksonville Center
Tue 12:52:04 PM 28.9622 -80.9822 339° North 156 180 9,200  Level Jacksonville Center
Tue 12:53:11 PM 29.0103 -80.9861 356° North 161 185 9,200 -50 Level Jacksonville Center
Tue 12:54:05 PM 29.0500 -80.9875 358° North 161 185 9,100  Descending Jacksonville Center
Tue 12:55:00 PM 29.0936 -80.9869 North 162 186 9,200 49 Climbing Jacksonville Center
Tue 12:56:07 PM 29.1458 -80.9811 North 161 185 9,200  Level Jacksonville Center
Tue 12:57:08 PM 29.1897 -80.9850 356° North 161 185 9,200 -49 Level Jacksonville Center
Tue 12:58:09 PM 29.2336 -80.9842 North 160 184 9,100  Descending Jacksonville Center
Tue 12:59:09 PM 29.2772 -80.9856 358° North 157 181 9,200 50 Climbing Jacksonville Center
Tue 01:00:10 PM 29.3233 -80.9894 356° North 156 180 9,200 -49 Level Jacksonville Center
Tue 01:01:11 PM 29.3672 -81.0006 348° North 162 186 9,100 -52 Descending Jacksonville Center
Tue 01:02:06 PM 29.4053 -81.0189 337° Northwest 159 183 9,100 49 Level Jacksonville Center
Tue 01:03:13 PM 29.4472 -81.0419 334° Northwest 157 181 9,200  Climbing Jacksonville Center
Tue 01:04:08 PM 29.4831 -81.0628 333° Northwest 158 182 9,100 -55 Descending Jacksonville Center
Tue 01:05:02 PM 29.5208 -81.0811 337° Northwest 161 185 9,100 45 Level Jacksonville Center
Tue 01:06:21 PM 29.5714 -81.1089 334° Northwest 157 181 9,200 43 Climbing Jacksonville Center
Tue 01:07:22 PM 29.6133 -81.1319 334° Northwest 159 183 9,200 -45 Level Jacksonville Center
Tue 01:08:34 PM 29.6639 -81.1572 337° Northwest 162 186 9,100  Descending Jacksonville Center
Tue 01:09:17 PM 29.6933 -81.1711 338° Northwest 160 184 9,200 58 Climbing Jacksonville Center
Tue 01:10:18 PM 29.7375 -81.1872 342° North 159 183 9,200  Level Jacksonville Center
Tue 01:11:33 PM 29.7897 -81.2053 343° North 155 178 9,200 -74 Level Jacksonville Center
Tue 01:11:39 PM 29.7939 -81.2078 332° Northwest 155 178 9,100 -90 Descending Jacksonville Center
Tue 01:12:40 PM 29.8358 -81.2214 344° North 161 185 9,100 49 Level Jacksonville Center
Tue 01:13:41 PM 29.8758 -81.2375 341° North 156 180 9,200  Climbing Jacksonville Center
Tue 01:14:42 PM 29.9178 -81.2533 342° North 160 184 9,100  Descending Jacksonville Center
Tue 01:15:43 PM 29.9639 -81.2719 341° North 160 184 9,200  Climbing Jacksonville Center
Tue 01:16:43 PM 30.0039 -81.2881 341° North 160 184 9,100  Descending Jacksonville Center
Tue 01:17:44 PM 30.0478 -81.3017 345° North 160 184 9,200  Climbing Jacksonville Center
Tue 01:18:45 PM 30.0897 -81.3203 339° North 160 184 9,100  Descending Jacksonville Center
Tue 01:19:52 PM 30.1381 -81.3433 338° Northwest 160 184 9,200  Climbing Jacksonville Center
Tue 01:20:53 PM 30.1781 -81.3619 338° Northwest 157 181 9,100 -49 Descending Jacksonville Center
Tue 01:21:54 PM 30.2200 -81.3781 342° North 157 181 9,100 49 Level Jacksonville Center
Tue 01:22:55 PM 30.2597 -81.3967 338° Northwest 155 178 9,200 49 Climbing Jacksonville Center
Tue 01:23:56 PM 30.3017 -81.4106 344° North 154 177 9,200 -47 Level Jacksonville Center
Tue 01:25:03 PM 30.3481 -81.4339 337° Northwest 155 178 9,100  Descending Jacksonville Center
Tue 01:26:04 PM 30.3900 -81.4478 344° North 158 182 9,200  Climbing Jacksonville Center
Tue 01:27:05 PM 30.4339 -81.4614 345° North 158 182 9,100 -49 Descending Jacksonville Center
Tue 01:28:06 PM 30.4675 -81.4922 322° Northwest 154 177 9,100 49 Level Jacksonville Center
Tue 01:29:07 PM 30.5075 -81.5158 333° Northwest 155 178 9,200  Climbing Jacksonville Center
Tue 01:30:01 PM 30.5453 -81.5322 340° North 162 186 9,100 -52 Descending Jacksonville Center
Tue 01:31:02 PM 30.5872 -81.5606 330° Northwest 165 190 9,100  Level Jacksonville Center
Tue 01:32:03 PM 30.6189 -81.5939 318° Northwest 155 178 9,100 49 Level Jacksonville Center
Tue 01:33:04 PM 30.6547 -81.6247 323° Northwest 154 177 9,200  Climbing Jacksonville Center
Tue 01:34:05 PM 30.6886 -81.6581 320° Northwest 156 180 9,100 -64 Descending Jacksonville Center
Tue 01:34:38 PM 30.7097 -81.6797 319° Northwest 158 182 9,100  Level Jacksonville Center
Tue 01:35:06 PM 30.7203 -81.6917 316° Northwest 157 181 9,100 100 Level Jacksonville Center
Tue 01:35:38 PM 30.7433 -81.7106 325° Northwest 158 182 9,200  Climbing Jacksonville Center
Tue 01:36:01 PM 30.7497 -81.7203 307° West 157 181 9,100 -100 Descending Jacksonville Center
Tue 01:36:38 PM 30.7772 -81.7489 318° Northwest 158 182 9,100 100 Level Jacksonville Center
Tue 01:37:01 PM 30.7856 -81.7536 334° Northwest 161 185 9,200  Climbing Jacksonville Center
Tue 01:37:38 PM 30.8108 -81.7800 318° Northwest 163 188 9,100 -62 Descending Jacksonville Center
Tue 01:38:38 PM 30.8425 -81.8111 320° Northwest 175 201 9,100 50 Level Jacksonville Center
Tue 01:39:38 PM 30.8781 -81.8444 321° Northwest 175 201 9,200  Climbing Jacksonville Center
Tue 01:40:38 PM 30.9119 -81.8781 320° Northwest 170 196 9,100 -100 Descending Jacksonville Center
Tue 01:41:38 PM 30.9475 -81.9117 321° Northwest 170 196 9,000 -50 Descending Jacksonville Center
Tue 01:42:38 PM 30.9792 -81.9450 318° Northwest 170 196 9,000 50 Level Jacksonville Center
Tue 01:43:38 PM 31.0150 -81.9786 321° Northwest 165 190 9,100 50 Climbing Jacksonville Center
Tue 01:44:38 PM 31.0506 -82.0122 321° Northwest 165 190 9,100  Level Jacksonville Center
Tue 01:45:38 PM 31.0864 -82.0458 321° Northwest 165 190 9,100  Level Jacksonville Center
Tue 01:46:38 PM 31.1200 -82.0819 317° Northwest 165 190 9,100  Level Jacksonville Center
Tue 01:47:38 PM 31.1536 -82.1158 319° Northwest 165 190 9,100  Level Jacksonville Center
Tue 01:48:38 PM 31.1892 -82.1494 321° Northwest 165 190 9,100 -50 Level Jacksonville Center
Tue 01:49:38 PM 31.2228 -82.1831 319° Northwest 159 183 9,000  Descending Jacksonville Center
Tue 01:50:38 PM 31.2564 -82.2122 323° Northwest 159 183 9,100  Climbing Jacksonville Center
Tue 01:51:38 PM 31.2900 -82.2483 317° Northwest 159 183 9,000  Descending Jacksonville Center
Tue 01:52:38 PM 31.3236 -82.2822 319° Northwest 159 183 9,100 50 Climbing Jacksonville Center
Tue 01:53:38 PM 31.3572 -82.3158 320° Northwest 159 183 9,100  Level Jacksonville Center
Tue 01:54:38 PM 31.3950 -82.3475 324° Northwest 159 183 9,100  Level Jacksonville Center
Tue 01:55:38 PM 31.4286 -82.3836 317° Northwest 158 182 9,100  Level Jacksonville Center
Tue 01:56:38 PM 31.4642 -82.4153 323° Northwest 158 182 9,100  Level Jacksonville Center
Tue 01:57:38 PM 31.4978 -82.4517 317° Northwest 158 182 9,100  Level Jacksonville Center
Tue 01:58:38 PM 31.5333 -82.4856 321° Northwest 158 182 9,100  Level Jacksonville Center
Tue 01:59:38 PM 31.5689 -82.5194 321° Northwest 158 182 9,100  Level Jacksonville Center
Tue 02:00:38 PM 31.6022 -82.5536 319° Northwest 163 188 9,100  Level Jacksonville Center
Tue 02:01:38 PM 31.6358 -82.5900 317° Northwest 163 188 9,100  Level Jacksonville Center
Tue 02:02:38 PM 31.6736 -82.6242 322° Northwest 163 188 9,100 -50 Level Jacksonville Center
Tue 02:03:38 PM 31.7092 -82.6606 319° Northwest 163 188 9,000  Descending Jacksonville Center
Tue 02:04:38 PM 31.7447 -82.6947 321° Northwest 163 188 9,100 50 Climbing Jacksonville Center
Tue 02:05:38 PM 31.7803 -82.7314 319° Northwest 163 188 9,100 -50 Level Jacksonville Center
Tue 02:06:38 PM 31.8158 -82.7656 321° Northwest 163 188 9,000 -50 Descending Jacksonville Center
Tue 02:07:38 PM 31.8469 -82.7997 317° Northwest 158 182 9,000 -150 Level Jacksonville Center
Tue 02:08:38 PM 31.8867 -82.8364 322° Northwest 163 188 8,700 -250 Descending Jacksonville Center
Tue 02:09:38 PM 31.9244 -82.8756 319° Northwest 163 188 8,500 -250 Descending Jacksonville Center
Tue 02:10:38 PM 31.9639 -82.9122 322° Northwest 168 193 8,200 -94 Descending Jacksonville Center
Tue 02:12:50 PM 32.0500 -83.0000 319° Northwest 168 193 8,200  Level Atlanta TRACON
Tue 02:13:50 PM 32.0833 -83.0333 320° Northwest 169 194 8,200 -50 Level Atlanta TRACON
Tue 02:14:50 PM 32.1167 -83.0667 320° Northwest 170 196 8,100 -50 Descending Atlanta TRACON
Tue 02:15:50 PM 32.1500 -83.1000 320° Northwest 170 196 8,100  Level Atlanta TRACON
Tue 02:16:50 PM 32.1833 -83.1333 320° Northwest 168 193 8,100  Level Atlanta TRACON
Tue 02:17:50 PM 32.2167 -83.1667 320° Northwest 171 197 8,100  Level Atlanta TRACON
Tue 02:18:50 PM 32.2667 -83.2167 320° Northwest 169 194 8,100  Level Atlanta TRACON
Tue 02:19:50 PM 32.3000 -83.2500 320° Northwest 169 194 8,100  Level Atlanta TRACON
Tue 02:20:50 PM 32.3333 -83.2833 320° Northwest 171 197 8,100  Level Atlanta TRACON
Tue 02:21:56 PM 32.3833 -83.3000 344° North 164 189 8,100  Level Atlanta TRACON
Tue 02:22:50 PM 32.4167 -83.3167 337° Northwest 164 189 8,100  Level Atlanta TRACON
Tue 02:23:50 PM 32.4667 -83.3333 344° North 162 186 8,100  Level Atlanta TRACON
Tue 02:24:51 PM 32.5000 -83.3500 337° Northwest 164 189 8,100  Level Atlanta TRACON
Tue 02:25:50 PM 32.5500 -83.3667 344° North 164 189 8,100  Level Atlanta TRACON
Tue 02:26:50 PM 32.6000 -83.3833 344° North 165 190 8,100  Level Atlanta TRACON
Tue 02:27:50 PM 32.6333 -83.3833 360° North 167 192 8,100  Level Atlanta TRACON
Tue 02:28:50 PM 32.6833 -83.4000 344° North 167 192 8,100  Level Atlanta TRACON
Tue 02:29:50 PM 32.7333 -83.4167 344° North 168 193 8,100  Level Atlanta TRACON
Tue 02:30:50 PM 32.7667 -83.4333 337° Northwest 170 196 8,100  Level Atlanta TRACON
Tue 02:31:50 PM 32.8167 -83.4500 344° North 170 196 8,100  Level Atlanta TRACON
Tue 02:32:50 PM 32.8667 -83.4667 344° North 170 196 8,100  Level Atlanta TRACON
Tue 02:33:50 PM 32.9000 -83.4833 337° Northwest 168 193 8,100  Level Atlanta TRACON
Tue 02:34:50 PM 32.9500 -83.5000 344° North 169 194 8,100 -50 Level Atlanta TRACON
Tue 02:35:50 PM 33.0000 -83.5167 344° North 168 193 8,000  Descending Atlanta TRACON
Tue 02:36:50 PM 33.0333 -83.5333 337° Northwest 169 194 8,100 50 Climbing Atlanta TRACON
Tue 02:37:50 PM 33.0833 -83.5500 344° North 170 196 8,100  Level Atlanta TRACON
Tue 02:38:50 PM 33.1333 -83.5667 344° North 169 194 8,100  Level Atlanta TRACON
Tue 02:39:50 PM 33.1833 -83.5833 344° North 171 197 8,100  Level Atlanta TRACON
Tue 02:40:50 PM 33.2167 -83.6000 337° Northwest 172 198 8,100  Level Atlanta TRACON
Tue 02:41:50 PM 33.2667 -83.6167 344° North 169 194 8,100  Level Atlanta TRACON
Tue 02:42:50 PM 33.3167 -83.6333 344° North 171 197 8,100 -50 Level Atlanta TRACON
Tue 02:43:50 PM 33.3500 -83.6667 320° Northwest 172 198 8,000 -50 Descending Atlanta TRACON
Tue 02:44:50 PM 33.3833 -83.7000 320° Northwest 170 196 8,000 -250 Level Atlanta TRACON
Tue 02:45:50 PM 33.4167 -83.7500 309° West 187 215 7,500 -450 Descending Atlanta TRACON
Tue 02:46:50 PM 33.4667 -83.7833 331° Northwest 193 222 7,100 -450 Descending Atlanta TRACON
Tue 02:47:50 PM 33.5000 -83.8333 309° West 193 222 6,600 -500 Descending Atlanta TRACON
Tue 02:48:50 PM 33.5333 -83.8833 309° West 198 228 6,100 -700 Descending Atlanta TRACON
Tue 02:49:50 PM 33.5667 -83.9333 309° West 193 222 5,200 -850 Descending Atlanta TRACON
Tue 02:50:50 PM 33.6000 -83.9667 320° Northwest 181 208 4,400 -750 Descending Atlanta TRACON
Tue 02:51:50 PM 33.6500 -84.0167 320° Northwest 186 214 3,700 -600 Descending Atlanta TRACON
Tue 02:52:50 PM 33.6833 -84.0500 320° Northwest 177 204 3,200 -300 Descending Atlanta TRACON
Tue 02:53:50 PM 33.7167 -84.1000 309° West 164 189 3,100 -50 Descending Atlanta TRACON
Tue 02:54:50 PM 33.7333 -84.1333 301° West 157 181 3,100 -50 Level Atlanta TRACON
Tue 02:55:51 PM 33.7667 -84.1667 320° Northwest 160 184 3,000 -248 Descending Atlanta TRACON
Tue 02:56:51 PM 33.8000 -84.2167 309° West 168 193 2,600 -450 Descending Atlanta TRACON
Tue 02:57:51 PM 33.8167 -84.2667 292° West 155 178 2,100 -350 Descending Atlanta TRACON
Tue 02:58:51 PM 33.8333 -84.3000 301° West 120 138 1,900 -200 Descending Atlanta TRACON
Tue 03:00:00 PM 33.8667 -84.3000 301° West  Level FlightAware Approximate
Tue 03:07:00 PM 33.8756 -84.3020 301° West  Level Estimated
Tue 03:08:00 PM 33.8756 -84.3020 301° West  Level Estimated

Login

Don't have an account? Register now (free) for customized features, flight alerts, and more!